Time;durP1;ratioP1;P1;durP2;ratioP2;P2;SDS_P1;SDS_P2;PMS_P1;PMS_P2;Temp;Humidity;BMP_temperature;BMP_pressure;BME280_temperature;BME280_humidity;BME280_pressure;Samples;Min_cycle;Max_cycle;Signal;HPM_P1;HPM_P2
2022/04/11 00:01:52;;;;;;;6.90;1.88;;;;;;;5.30;nan;101850.97;5006658;28;20376;-59
2022/04/11 00:04:18;;;;;;;6.10;1.42;;;;;;;5.27;nan;101851.34;5003138;28;20026;-59
2022/04/11 00:06:43;;;;;;;5.20;1.33;;;;;;;5.24;nan;101852.56;5003633;28;20243;-60
2022/04/11 00:09:09;;;;;;;2.42;1.50;;;;;;;5.21;nan;101854.78;5005788;28;20454;-60
2022/04/11 00:11:34;;;;;;;4.30;1.40;;;;;;;5.21;nan;101850.28;5003726;28;20069;-59
2022/04/11 00:14:01;;;;;;;5.20;1.45;;;;;;;5.21;nan;101854.78;5002280;28;20936;-59
2022/04/11 00:16:28;;;;;;;2.65;1.27;;;;;;;5.22;nan;101848.44;5004516;28;20121;-59
2022/04/11 00:18:53;;;;;;;5.15;1.20;;;;;;;5.22;nan;101859.91;5001517;28;20033;-59
2022/04/11 00:21:19;;;;;;;6.35;1.55;;;;;;;5.24;nan;101860.53;5003229;28;20018;-59
2022/04/11 00:23:44;;;;;;;3.38;1.30;;;;;;;5.22;nan;101845.78;5004460;28;20087;-59
2022/04/11 00:26:10;;;;;;;5.85;1.35;;;;;;;5.22;nan;101859.91;5005449;28;20026;-59
2022/04/11 00:28:35;;;;;;;5.97;1.40;;;;;;;5.21;nan;101857.44;5001256;28;20040;-60
2022/04/11 00:31:01;;;;;;;4.05;1.50;;;;;;;5.18;nan;101860.44;5003704;28;20500;-60
2022/04/11 00:33:26;;;;;;;4.53;1.50;;;;;;;5.19;nan;101864.72;5003087;28;20080;-59
2022/04/11 00:35:53;;;;;;;3.40;0.98;;;;;;;5.19;nan;101859.41;5004698;28;20535;-59
2022/04/11 00:38:19;;;;;;;3.85;1.40;;;;;;;5.21;nan;101860.09;4989182;28;20021;-59
2022/04/11 00:40:44;;;;;;;2.50;1.00;;;;;;;5.21;nan;101860.09;5002771;28;20045;-59
2022/04/11 00:43:35;;;;;;;4.10;1.52;;;;;;;5.16;nan;101861.44;5005843;28;20060;-59
2022/04/11 00:46:02;;;;;;;2.65;1.20;;;;;;;5.22;nan;101859.91;5004651;28;20051;-60
2022/04/11 00:48:27;;;;;;;2.47;1.20;;;;;;;5.24;nan;101854.41;5003505;28;20693;-58
2022/04/11 00:51:09;;;;;;;3.85;1.38;;;;;;;5.21;nan;101862.75;5000174;28;20112;-60
2022/04/11 00:53:41;;;;;;;4.82;1.60;;;;;;;5.24;nan;101857.06;5005955;28;20026;-60
2022/04/11 00:56:11;;;;;;;6.82;1.45;;;;;;;5.20;nan;101853.91;5003269;28;21458;-60
2022/04/11 00:58:38;;;;;;;2.28;1.20;;;;;;;5.19;nan;101860.25;5001187;28;20072;-59
2022/04/11 01:01:05;;;;;;;4.25;1.13;;;;;;;5.16;nan;101863.28;5003202;28;20038;-60
2022/04/11 01:03:32;;;;;;;7.47;1.48;;;;;;;5.18;nan;101865.75;5001121;28;20120;-60
2022/04/11 01:05:58;;;;;;;6.72;1.30;;;;;;;5.13;nan;101867.13;5003647;28;20179;-59
2022/04/11 01:08:23;;;;;;;2.65;1.10;;;;;;;5.19;nan;101872.69;5002260;28;20558;-59
2022/04/11 01:10:51;;;;;;;4.90;1.17;;;;;;;5.21;nan;101868.06;5004258;28;20153;-59
2022/04/11 01:13:17;;;;;;;1.42;1.00;;;;;;;5.21;nan;101868.06;5004460;28;20028;-60
2022/04/11 01:16:04;;;;;;;2.63;1.05;;;;;;;5.15;nan;101865.09;5000728;28;20033;-58
2022/04/11 01:18:35;;;;;;;4.90;1.17;;;;;;;5.16;nan;101861.44;5004717;28;20025;-59
2022/04/11 01:21:02;;;;;;;6.35;2.00;;;;;;;5.12;nan;101869.97;5001938;28;20042;-60
2022/04/11 01:23:28;;;;;;;3.08;1.25;;;;;;;5.12;nan;101870.78;5003723;28;20033;-59
2022/04/11 01:25:54;;;;;;;6.45;1.20;;;;;;;5.15;nan;101873.06;5005154;28;20120;-59
2022/04/11 01:28:21;;;;;;;4.43;1.98;;;;;;;5.19;nan;101870.88;5000381;28;20056;-59
2022/04/11 01:30:50;;;;;;;3.10;1.42;;;;;;;5.16;nan;101872.06;5005548;28;20152;-59
2022/04/11 01:33:22;;;;;;;3.92;0.90;;;;;;;5.18;nan;101863.91;5009700;28;20034;-59
2022/04/11 01:35:48;;;;;;;1.92;1.23;;;;;;;5.16;nan;101871.25;5007966;28;20510;-59
2022/04/11 01:38:13;;;;;;;5.40;1.30;;;;;;;5.15;nan;101872.25;5006797;28;20026;-59
2022/04/11 01:40:52;;;;;;;1.98;0.90;;;;;;;5.11;nan;101863.84;5006933;28;20069;-59
2022/04/11 01:43:18;;;;;;;3.10;0.90;;;;;;;5.11;nan;101874.47;5008882;28;20542;-59
2022/04/11 01:45:44;;;;;;;2.28;1.40;;;;;;;5.07;nan;101875.84;5007850;28;20092;-59
2022/04/11 01:48:09;;;;;;;3.85;1.00;;;;;;;5.04;nan;101873.56;5008872;28;20026;-60
2022/04/11 01:50:35;;;;;;;5.65;2.13;;;;;;;5.02;nan;101880.88;5005065;28;20407;-59
2022/04/11 01:53:27;;;;;;;4.60;1.35;;;;;;;4.95;nan;101881.78;5006168;28;20053;-59
2022/04/11 01:55:52;;;;;;;4.47;1.30;;;;;;;4.98;nan;101895.53;5002694;28;20065;-60
2022/04/11 01:58:18;;;;;;;3.78;1.20;;;;;;;4.95;nan;101885.28;5004275;28;20064;-60
2022/04/11 02:00:44;;;;;;;7.45;1.17;;;;;;;4.94;nan;101886.28;5003406;28;21103;-59
2022/04/11 02:03:10;;;;;;;2.88;1.10;;;;;;;4.92;nan;101895.44;5007212;28;20034;-59
2022/04/11 02:05:36;;;;;;;4.80;1.30;;;;;;;4.91;nan;101888.47;5007052;28;20022;-59
2022/04/11 02:08:05;;;;;;;2.15;1.00;;;;;;;4.93;nan;101886.47;5004948;28;20022;-59
2022/04/11 02:10:30;;;;;;;3.30;1.30;;;;;;;4.92;nan;101888.31;5002916;28;20026;-59
2022/04/11 02:12:56;;;;;;;2.83;0.95;;;;;;;4.93;nan;101895.25;5005162;28;20029;-59
2022/04/11 02:15:22;;;;;;;3.05;1.17;;;;;;;4.93;nan;101892.59;5003160;28;20511;-59
2022/04/11 02:17:49;;;;;;;5.82;1.73;;;;;;;4.92;nan;101895.44;5005995;28;20030;-59
2022/04/11 02:20:15;;;;;;;2.90;1.10;;;;;;;4.91;nan;101891.97;5006677;28;20056;-60
2022/04/11 02:22:47;;;;;;;2.63;1.33;;;;;;;4.84;nan;101891.03;5008231;28;20400;-59
2022/04/11 02:25:12;;;;;;;3.67;1.50;;;;;;;4.85;nan;101890.06;5006902;28;20034;-59
2022/04/11 02:27:38;;;;;;;5.40;1.40;;;;;;;4.85;nan;101890.06;5003752;28;20030;-60
2022/04/11 02:30:05;;;;;;;3.22;1.48;;;;;;;4.87;nan;101897.84;5008403;28;20037;-60
2022/04/11 02:32:31;;;;;;;5.88;1.75;;;;;;;4.85;nan;101895.34;5006653;28;20399;-59
2022/04/11 02:34:56;;;;;;;4.40;1.20;;;;;;;4.85;nan;101892.69;5006899;28;20018;-59
2022/04/11 02:37:22;;;;;;;4.40;1.58;;;;;;;4.83;nan;101889.38;5005490;28;20104;-59
2022/04/11 02:39:47;;;;;;;3.55;1.48;;;;;;;4.80;nan;101895.06;5006571;28;20033;-59
2022/04/11 02:42:26;;;;;;;3.95;1.33;;;;;;;4.75;nan;101892.13;5004927;28;20068;-59
2022/04/11 02:44:52;;;;;;;8.82;1.58;;;;;;;4.79;nan;101890.75;5003803;28;20025;-59
2022/04/11 02:47:19;;;;;;;7.85;1.55;;;;;;;4.80;nan;101887.09;5009633;28;20079;-60
2022/04/11 02:49:45;;;;;;;7.43;1.55;;;;;;;4.83;nan;101889.38;5006436;28;20419;-59
2022/04/11 02:52:11;;;;;;;4.25;1.60;;;;;;;4.84;nan;101885.72;5007363;28;20380;-59
2022/04/11 02:54:38;;;;;;;4.90;1.23;;;;;;;4.86;nan;101891.69;5007752;28;20022;-59
2022/04/11 02:57:04;;;;;;;3.88;1.35;;;;;;;4.88;nan;101886.19;5004551;28;20022;-59
2022/04/11 02:59:29;;;;;;;3.90;1.35;;;;;;;4.90;nan;101882.34;5058375;23;20037;-57
2022/04/11 03:01:56;;;;;;;7.13;1.55;;;;;;;4.88;nan;101886.19;4999042;28;20125;-58
2022/04/11 03:04:22;;;;;;;3.33;1.17;;;;;;;4.90;nan;101884.19;5005997;28;20467;-58
2022/04/11 03:06:47;;;;;;;5.38;1.10;;;;;;;4.90;nan;101892.16;5006263;28;20025;-58
2022/04/11 03:09:13;;;;;;;4.70;1.42;;;;;;;4.88;nan;101888.84;5008014;28;20538;-56
2022/04/11 03:11:38;;;;;;;3.10;1.38;;;;;;;4.91;nan;101881.34;5003206;28;20057;-58
2022/04/11 03:14:04;;;;;;;3.60;1.40;;;;;;;4.94;nan;101888.13;5004382;28;20042;-57
2022/04/11 03:16:31;;;;;;;4.13;1.30;;;;;;;4.96;nan;101878.94;5002794;28;20029;-58
2022/04/11 03:18:56;;;;;;;4.70;1.50;;;;;;;4.94;nan;101878.31;5007496;28;20029;-57
2022/04/11 03:21:22;;;;;;;2.00;1.30;;;;;;;4.95;nan;101881.78;5006747;28;20022;-58
2022/04/11 03:23:48;;;;;;;5.40;1.42;;;;;;;4.95;nan;101887.09;5007138;28;20025;-58
2022/04/11 03:26:13;;;;;;;4.32;1.75;;;;;;;4.94;nan;101883.63;5004161;28;20041;-57
2022/04/11 03:28:39;;;;;;;3.38;1.25;;;;;;;4.95;nan;101884.44;5004750;28;20613;-56
2022/04/11 03:31:04;;;;;;;4.95;1.40;;;;;;;4.97;nan;101883.25;5006752;28;20030;-57
2022/04/11 03:33:30;;;;;;;3.40;1.33;;;;;;;4.99;nan;101888.38;5002860;28;20025;-57
2022/04/11 03:35:55;;;;;;;4.63;1.40;;;;;;;4.99;nan;101899.81;5004552;28;20038;-57
2022/04/11 03:38:21;;;;;;;11.80;1.52;;;;;;;4.97;nan;101899.19;5004158;28;20032;-58
2022/04/11 03:40:46;;;;;;;4.47;1.50;;;;;;;4.98;nan;101895.53;5005550;28;20022;-58
2022/04/11 03:43:12;;;;;;;2.45;1.27;;;;;;;4.97;nan;101904.50;5006862;28;20017;-58
2022/04/11 03:45:38;;;;;;;7.30;1.55;;;;;;;4.97;nan;101899.19;5004033;28;20057;-57
2022/04/11 03:48:04;;;;;;;5.97;1.60;;;;;;;4.97;nan;101903.69;5005165;28;20109;-58
2022/04/11 03:50:29;;;;;;;2.88;1.45;;;;;;;4.98;nan;101900.84;5003643;28;20030;-58
2022/04/11 03:52:55;;;;;;;7.53;1.48;;;;;;;4.98;nan;101900.84;5001830;28;20041;-57
2022/04/11 03:55:20;;;;;;;3.00;1.40;;;;;;;4.98;nan;101911.47;5002369;28;20018;-56
2022/04/11 03:57:46;;;;;;;3.80;1.60;;;;;;;4.97;nan;101909.81;5006617;28;20105;-58
2022/04/11 04:00:12;;;;;;;3.30;1.30;;;;;;;4.97;nan;101907.16;5005268;28;20034;-57
2022/04/11 04:02:38;;;;;;;1.92;1.30;;;;;;;4.97;nan;101904.50;5005060;28;20065;-57
2022/04/11 04:05:04;;;;;;;4.97;1.30;;;;;;;4.97;nan;101906.34;5003778;28;20040;-58
2022/04/11 04:07:29;;;;;;;7.97;1.55;;;;;;;4.99;nan;101912.28;5004684;28;20068;-57
2022/04/11 04:09:55;;;;;;;5.10;1.33;;;;;;;5.02;nan;101910.09;5003141;28;20028;-58
2022/04/11 04:12:21;;;;;;;5.75;1.60;;;;;;;5.04;nan;101910.75;5004974;28;20539;-58
2022/04/11 04:14:48;;;;;;;4.10;1.33;;;;;;;5.05;nan;101912.41;5000876;28;20490;-58
2022/04/11 04:17:14;;;;;;;3.25;1.50;;;;;;;5.07;nan;101915.69;5006095;28;20018;-58
2022/04/11 04:19:39;;;;;;;3.25;1.30;;;;;;;5.07;nan;101907.72;5003229;28;20029;-58
2022/04/11 04:22:05;;;;;;;4.03;1.15;;;;;;;5.07;nan;101910.38;5004478;28;20033;-56
2022/04/11 04:24:36;;;;;;;5.55;1.33;;;;;;;5.07;nan;101914.88;5002230;28;20029;-57
2022/04/11 04:27:03;;;;;;;5.15;1.50;;;;;;;5.10;nan;101909.19;5000875;28;20018;-57
2022/04/11 04:29:28;;;;;;;4.65;1.75;;;;;;;5.09;nan;101904.88;5003371;28;20029;-58
2022/04/11 04:31:54;;;;;;;6.80;1.23;;;;;;;5.09;nan;101912.84;5005076;28;20100;-58
2022/04/11 04:34:20;;;;;;;8.43;1.92;;;;;;;5.08;nan;101908.53;5003985;28;20033;-58
2022/04/11 04:36:47;;;;;;;4.35;1.77;;;;;;;5.06;nan;101915.88;5004988;28;20033;-57
2022/04/11 04:39:12;;;;;;;4.38;1.13;;;;;;;5.06;nan;101910.56;5002096;28;20030;-58
2022/04/11 04:41:38;;;;;;;3.50;1.48;;;;;;;5.03;nan;101909.09;5006135;28;20326;-56
2022/04/11 04:44:07;;;;;;;3.35;1.20;;;;;;;5.02;nan;101911.91;5005502;28;20033;-57
2022/04/11 04:46:35;;;;;;;2.80;1.33;;;;;;;5.02;nan;101918.03;4997351;28;20054;-57
2022/04/11 04:49:02;;;;;;;4.65;1.40;;;;;;;5.02;nan;101919.88;5002211;28;20626;-56
2022/04/11 04:51:28;;;;;;;5.22;1.77;;;;;;;5.02;nan;101912.72;5004416;28;20026;-56
2022/04/11 04:53:54;;;;;;;4.22;1.60;;;;;;;5.02;nan;101914.56;5004051;28;20033;-58
2022/04/11 04:56:19;;;;;;;11.07;1.70;;;;;;;5.02;nan;101909.25;4994176;28;20084;-58
2022/04/11 04:58:45;;;;;;;8.57;1.80;;;;;;;5.02;nan;101918.03;5004929;28;20041;-56
2022/04/11 05:01:12;;;;;;;8.68;1.30;;;;;;;5.02;nan;101914.56;5001227;28;20030;-58
2022/04/11 05:03:37;;;;;;;9.38;1.63;;;;;;;5.00;nan;101913.94;5004328;28;20041;-58
2022/04/11 05:06:03;;;;;;;3.95;1.50;;;;;;;5.00;nan;101919.25;5004133;28;20549;-56
2022/04/11 05:08:29;;;;;;;2.80;1.30;;;;;;;4.98;nan;101923.91;5000821;28;20081;-56
2022/04/11 05:10:54;;;;;;;3.72;1.40;;;;;;;4.97;nan;101932.91;5002927;28;20038;-58
2022/04/11 05:13:20;;;;;;;4.60;1.25;;;;;;;4.96;nan;101929.41;5004980;28;20499;-58
2022/04/11 05:15:46;;;;;;;4.35;1.40;;;;;;;4.99;nan;101930.88;5001830;28;20026;-57
2022/04/11 05:18:13;;;;;;;9.13;1.45;;;;;;;5.00;nan;101938.66;5003353;28;20018;-58
2022/04/11 05:20:40;;;;;;;5.95;1.60;;;;;;;5.01;nan;101937.66;5004228;28;20061;-57
2022/04/11 05:23:05;;;;;;;3.42;1.50;;;;;;;5.03;nan;101929.53;5003017;28;20030;-57
2022/04/11 05:25:31;;;;;;;6.45;1.90;;;;;;;5.05;nan;101938.97;5006032;28;20036;-57
2022/04/11 05:27:56;;;;;;;5.40;1.30;;;;;;;5.04;nan;101941.81;5005243;28;20034;-57
2022/04/11 05:30:22;;;;;;;6.63;2.22;;;;;;;5.05;nan;101936.31;5004625;28;20026;-58
2022/04/11 05:32:47;;;;;;;4.97;1.30;;;;;;;5.07;nan;101942.25;5005720;28;20021;-58
2022/04/11 05:35:13;;;;;;;6.93;2.10;;;;;;;5.07;nan;101936.94;5004301;28;20017;-58
2022/04/11 05:37:39;;;;;;;4.47;1.75;;;;;;;5.07;nan;101944.09;5002470;28;20120;-59
2022/04/11 05:40:05;;;;;;;6.28;1.88;;;;;;;5.08;nan;101940.41;5000261;28;20168;-62
2022/04/11 05:42:31;;;;;;;6.40;1.80;;;;;;;5.10;nan;101943.72;5005324;28;20038;-61
2022/04/11 05:44:57;;;;;;;5.07;1.60;;;;;;;5.12;nan;101947.84;5004661;28;20033;-62
2022/04/11 05:47:22;;;;;;;7.13;1.33;;;;;;;5.15;nan;101950.13;5001160;28;20076;-60
2022/04/11 05:49:48;;;;;;;5.13;1.23;;;;;;;5.18;nan;101959.56;5003389;28;20545;-61
2022/04/11 05:52:18;;;;;;;7.50;1.33;;;;;;;5.20;nan;101957.53;5002414;28;20061;-60
2022/04/11 05:54:45;;;;;;;7.30;1.63;;;;;;;5.21;nan;101959.22;5004980;28;20888;-61
2022/04/11 05:57:10;;;;;;;3.80;1.33;;;;;;;5.22;nan;101960.88;5003139;28;20022;-60
2022/04/11 05:59:36;;;;;;;6.65;1.70;;;;;;;5.25;nan;101955.19;5000121;28;20252;-61
2022/04/11 06:02:02;;;;;;;4.55;1.38;;;;;;;5.28;nan;101959.31;5001046;28;20022;-61
2022/04/11 06:04:27;;;;;;;4.90;1.30;;;;;;;5.29;nan;101960.94;5005856;28;20099;-59
2022/04/11 06:06:53;;;;;;;6.13;1.40;;;;;;;5.30;nan;101955.44;4998251;28;20095;-60
2022/04/11 06:09:19;;;;;;;3.92;1.45;;;;;;;5.32;nan;101955.25;5004679;28;20034;-61
2022/04/11 06:11:44;;;;;;;3.88;1.63;;;;;;;5.34;nan;101947.91;5006328;28;20034;-60
2022/04/11 06:14:10;;;;;;;4.60;1.75;;;;;;;5.37;nan;101947.53;4998258;28;20420;-62
2022/04/11 06:16:36;;;;;;;3.70;1.33;;;;;;;5.41;nan;101954.16;5006060;28;20063;-62
2022/04/11 06:19:01;;;;;;;6.03;1.30;;;;;;;5.41;nan;101959.47;5007214;28;20538;-62
2022/04/11 06:21:27;;;;;;;5.22;1.45;;;;;;;5.41;nan;101959.47;5002262;28;20026;-60
2022/04/11 06:23:53;;;;;;;9.15;2.13;;;;;;;5.42;nan;101964.63;5004499;28;20033;-59
2022/04/11 06:26:18;;;;;;;4.68;1.38;;;;;;;5.45;nan;101972.22;5001882;28;20252;-61
2022/04/11 06:28:44;;;;;;;8.80;1.38;;;;;;;5.48;nan;101965.69;5008379;28;20073;-60
2022/04/11 06:31:10;;;;;;;4.32;1.95;;;;;;;5.49;nan;101975.31;5007488;28;20030;-61
2022/04/11 06:33:37;;;;;;;6.05;1.30;;;;;;;5.54;nan;101986.22;5000547;28;20037;-61
2022/04/11 06:36:03;;;;;;;6.72;2.10;;;;;;;5.59;nan;101983.84;5002124;28;20114;-61
2022/04/11 06:38:28;;;;;;;3.50;1.25;;;;;;;5.65;nan;101975.13;5000958;28;20083;-61
2022/04/11 06:40:55;;;;;;;4.05;1.95;;;;;;;5.71;nan;101977.03;5002357;28;20057;-60
2022/04/11 06:43:21;;;;;;;6.35;1.60;;;;;;;5.78;nan;101978.97;5008426;28;20487;-62
2022/04/11 06:45:47;;;;;;;2.85;1.60;;;;;;;5.81;nan;101981.25;5004564;28;20026;-59
2022/04/11 06:48:12;;;;;;;4.05;2.00;;;;;;;5.86;nan;101984.16;5000486;28;20032;-60
2022/04/11 06:50:38;;;;;;;6.85;1.67;;;;;;;5.89;nan;101981.13;5003874;28;20537;-61
2022/04/11 06:53:04;;;;;;;7.78;1.77;;;;;;;5.91;nan;101981.78;5007562;28;20026;-59
2022/04/11 06:55:29;;;;;;;4.78;1.63;;;;;;;5.99;nan;101984.34;5005990;28;20072;-59
2022/04/11 06:57:55;;;;;;;6.85;1.85;;;;;;;6.02;nan;101983.97;5001737;28;20018;-59
2022/04/11 07:00:20;;;;;;;8.18;2.10;;;;;;;6.03;nan;101985.63;5001844;28;20065;-61
2022/04/11 07:02:46;;;;;;;4.88;1.55;;;;;;;6.02;nan;101989.31;5005336;28;20029;-61
2022/04/11 07:05:11;;;;;;;4.68;2.00;;;;;;;5.99;nan;101995.81;5006975;28;20026;-62
2022/04/11 07:07:39;;;;;;;3.42;1.73;;;;;;;5.96;nan;101992.72;5001260;28;20029;-61
2022/04/11 07:10:05;;;;;;;7.07;2.47;;;;;;;6.01;nan;101998.28;5005140;28;20057;-61
2022/04/11 07:12:31;;;;;;;5.60;1.75;;;;;;;6.09;nan;101998.16;5003514;28;20439;-62
2022/04/11 07:15:00;;;;;;;6.43;2.35;;;;;;;6.13;nan;101999.47;4999037;28;20027;-61
2022/04/11 07:17:26;;;;;;;6.43;2.83;;;;;;;6.24;nan;102008.78;5003997;28;20638;-62
2022/04/11 07:19:51;;;;;;;4.07;1.73;;;;;;;6.29;nan;102001.91;5001537;28;20041;-62
2022/04/11 07:22:23;;;;;;;7.35;2.00;;;;;;;6.36;nan;102010.75;5000733;28;20026;-62
2022/04/11 07:24:49;;;;;;;4.20;1.77;;;;;;;6.45;nan;102014.09;4988099;28;20116;-59
2022/04/11 07:27:15;;;;;;;10.98;2.63;;;;;;;6.48;nan;102010.28;4999942;28;20105;-61
2022/04/11 07:29:40;;;;;;;5.45;2.08;;;;;;;6.49;nan;102017.25;5006994;28;20030;-61
2022/04/11 07:32:06;;;;;;;8.57;2.22;;;;;;;6.50;nan;102013.56;5003439;28;20030;-60
2022/04/11 07:34:32;;;;;;;5.68;1.95;;;;;;;6.55;nan;102013.81;5004170;28;20036;-61
2022/04/11 07:36:57;;;;;;;3.88;2.03;;;;;;;6.60;nan;102017.53;5006767;28;20050;-60
2022/04/11 07:39:28;;;;;;;6.82;2.40;;;;;;;6.69;nan;102017.44;5010109;28;20033;-62
2022/04/11 07:41:54;;;;;;;8.38;2.72;;;;;;;6.76;nan;102023.63;5006997;28;20103;-61
2022/04/11 07:44:19;;;;;;;6.78;1.90;;;;;;;6.78;nan;102027.75;5003544;28;20053;-62
2022/04/11 07:46:45;;;;;;;4.72;2.10;;;;;;;6.82;nan;102028.16;5008539;28;20029;-60
2022/04/11 07:49:10;;;;;;;6.82;2.20;;;;;;;6.90;nan;102034.19;5010408;28;20036;-61
2022/04/11 07:51:36;;;;;;;7.70;2.33;;;;;;;6.92;nan;102036.69;5000916;28;20026;-60
2022/04/11 07:54:02;;;;;;;5.25;2.20;;;;;;;6.93;nan;102033.81;5007003;28;20021;-61
2022/04/11 07:56:29;;;;;;;5.95;2.10;;;;;;;6.95;nan;102034.44;5003697;28;20025;-62
2022/04/11 07:58:57;;;;;;;5.35;2.22;;;;;;;6.96;nan;102041.41;5008713;28;20053;-60
2022/04/11 08:01:24;;;;;;;5.85;3.10;;;;;;;7.01;nan;102037.38;5000844;28;20081;-62
2022/04/11 08:03:49;;;;;;;7.68;2.50;;;;;;;7.03;nan;102036.16;5005545;28;20036;-59
2022/04/11 08:06:15;;;;;;;4.05;2.42;;;;;;;7.07;nan;102037.41;5001885;28;20030;-61
2022/04/11 08:08:46;;;;;;;5.53;2.38;;;;;;;7.16;nan;102038.91;5000658;28;20026;-61
2022/04/11 08:11:13;;;;;;;4.68;2.50;;;;;;;7.20;nan;102047.38;5003517;28;20034;-62
2022/04/11 08:13:39;;;;;;;7.97;2.63;;;;;;;7.18;nan;102046.72;5001596;28;20037;-60
2022/04/11 08:16:05;;;;;;;6.13;2.92;;;;;;;7.20;nan;102039.38;4997786;28;20033;-62
2022/04/11 08:18:31;;;;;;;7.97;2.20;;;;;;;7.23;nan;102046.97;5001052;28;20034;-63
2022/04/11 08:20:57;;;;;;;5.35;2.40;;;;;;;7.34;nan;102046.41;5005209;28;20055;-62
2022/04/11 08:23:22;;;;;;;5.05;2.35;;;;;;;7.47;nan;102041.19;5006043;28;20041;-62
2022/04/11 08:25:49;;;;;;;8.40;2.10;;;;;;;7.60;nan;102048.44;5005578;28;20698;-62
2022/04/11 08:28:15;;;;;;;5.18;2.10;;;;;;;7.69;nan;102044.56;5003068;28;20017;-62
2022/04/11 08:30:40;;;;;;;4.75;2.55;;;;;;;7.72;nan;102051.34;5005144;28;20029;-61
2022/04/11 08:33:06;;;;;;;7.75;2.35;;;;;;;7.70;nan;102042.72;5005425;28;20383;-62
2022/04/11 08:35:32;;;;;;;8.45;2.70;;;;;;;7.70;nan;102051.56;5002646;28;20038;-62
2022/04/11 08:37:57;;;;;;;3.28;2.03;;;;;;;7.72;nan;102051.34;5002799;28;20109;-62
2022/04/11 08:40:23;;;;;;;4.93;2.38;;;;;;;7.69;nan;102046.41;5032048;22;20142;-82
2022/04/11 08:42:50;;;;;;;7.72;2.95;;;;;;;7.73;nan;102053.84;5011419;28;20118;-83
2022/04/11 08:45:19;;;;;;;6.45;2.50;;;;;;;7.83;nan;102043.63;5020201;28;20056;-83
2022/04/11 08:47:47;;;;;;;3.50;2.08;;;;;;;7.98;nan;102054.16;4992125;28;20083;-84
2022/04/11 08:50:13;;;;;;;3.92;2.30;;;;;;;8.10;nan;102047.25;5002587;28;20057;-83
2022/04/11 08:52:38;;;;;;;4.07;2.40;;;;;;;8.23;nan;102049.13;4999011;28;20052;-85
2022/04/11 08:55:05;;;;;;;8.98;2.33;;;;;;;8.30;nan;102054.50;4995602;28;20041;-85
2022/04/11 08:57:31;;;;;;;5.18;3.00;;;;;;;8.33;nan;102048.75;4999512;28;20030;-84
2022/04/11 09:00:06;;;;;;;4.75;2.10;;;;;;;8.33;nan;102049.56;4994647;28;20037;-84
2022/04/11 09:02:33;;;;;;;6.38;2.10;;;;;;;8.39;nan;102042.63;4997554;28;20078;-85
2022/04/11 09:04:59;;;;;;;3.67;1.98;;;;;;;8.38;nan;102041.81;4999281;28;20022;-86
2022/04/11 09:07:25;;;;;;;2.13;1.63;;;;;;;8.40;nan;102034.41;5000197;28;20034;-85
2022/04/11 09:09:57;;;;;;;3.78;1.98;;;;;;;8.38;nan;102046.31;5000560;28;20021;-84
2022/04/11 09:12:23;;;;;;;8.07;1.70;;;;;;;8.31;nan;102051.63;4999608;28;20022;-84
2022/04/11 09:14:56;;;;;;;4.03;1.50;;;;;;;8.25;nan;102046.25;5003226;28;20634;-85
2022/04/11 09:17:23;;;;;;;4.80;2.28;;;;;;;8.34;nan;102039.75;5001357;28;20044;-86
2022/04/11 09:20:10;;;;;;;3.42;1.58;;;;;;;8.41;nan;102035.22;4994614;28;20480;-86
2022/04/11 09:22:35;;;;;;;7.68;1.50;;;;;;;8.55;nan;102036.09;5000808;28;20038;-86
2022/04/11 09:25:08;;;;;;;5.40;1.55;;;;;;;8.60;nan;102037.09;4984893;28;20096;-84
2022/04/11 09:27:34;;;;;;;2.95;1.25;;;;;;;8.68;nan;102042.28;5000964;28;20045;-86
2022/04/11 09:30:00;;;;;;;4.43;1.35;;;;;;;8.74;nan;102044.13;4997866;28;20113;-85
2022/04/11 09:32:25;;;;;;;7.32;1.90;;;;;;;8.82;nan;102032.44;4998077;28;20349;-85
2022/04/11 09:34:54;;;;;;;4.45;1.65;;;;;;;8.88;nan;102033.44;4978294;28;20125;-86
2022/04/11 09:37:23;;;;;;;5.07;2.10;;;;;;;8.99;nan;102032.84;4997069;28;20022;-85
2022/04/11 09:39:56;;;;;;;8.13;2.00;;;;;;;9.04;nan;102025.03;5000710;28;20091;-86
2022/04/11 09:42:32;;;;;;;6.22;2.67;;;;;;;9.09;nan;102036.72;4997970;28;20037;-85
2022/04/11 09:45:01;;;;;;;4.00;2.08;;;;;;;9.13;nan;102023.75;4996444;28;20387;-85
2022/04/11 09:47:27;;;;;;;5.95;2.35;;;;;;;9.15;nan;102026.22;4995471;28;20069;-85
2022/04/11 09:49:53;;;;;;;4.45;2.33;;;;;;;9.16;nan;102026.06;4997125;28;20053;-86
2022/04/11 09:52:18;;;;;;;4.20;2.42;;;;;;;9.20;nan;102023.78;5006706;28;20026;-85
2022/04/11 09:54:46;;;;;;;5.72;2.65;;;;;;;9.22;nan;102017.19;5005776;28;20018;-86
2022/04/11 09:57:13;;;;;;;8.57;4.25;;;;;;;9.20;nan;102021.94;5004369;28;20535;-86
2022/04/11 09:59:43;;;;;;;12.88;4.32;;;;;;;9.23;nan;102024.19;5005826;28;20380;-85
2022/04/11 10:02:10;;;;;;;7.90;3.35;;;;;;;9.24;nan;102020.47;5001177;28;20537;-86
2022/04/11 10:04:38;;;;;;;10.57;2.88;;;;;;;9.31;nan;102018.59;5001356;28;20048;-86
2022/04/11 10:07:04;;;;;;;6.45;2.15;;;;;;;9.39;nan;102012.22;4999342;28;20861;-86
2022/04/11 10:09:30;;;;;;;5.63;2.42;;;;;;;9.47;nan;102011.16;5003215;28;20036;-86
2022/04/11 10:11:56;;;;;;;5.47;2.58;;;;;;;9.53;nan;102005.00;5002651;28;20057;-86
2022/04/11 10:14:23;;;;;;;6.20;3.25;;;;;;;9.52;nan;102009.53;5001600;28;20068;-86
2022/04/11 10:16:54;;;;;;;7.50;2.17;;;;;;;9.53;nan;102013.03;4987013;28;20432;-86
2022/04/11 10:19:27;;;;;;;6.75;2.80;;;;;;;9.52;nan;102014.06;4987638;28;20153;-86
2022/04/11 10:22:01;;;;;;;11.98;5.20;;;;;;;9.54;nan;102017.34;5001760;28;20025;-85
2022/04/11 10:24:34;;;;;;;7.00;2.97;;;;;;;9.49;nan;102014.44;5004494;28;20066;-86
2022/04/11 10:27:25;;;;;;;14.07;3.65;;;;;;;9.42;nan;102016.31;5002276;28;20072;-85
2022/04/11 10:29:54;;;;;;;7.75;2.30;;;;;;;9.47;nan;102027.22;5002653;28;20103;-85
2022/04/11 10:32:21;;;;;;;5.57;3.05;;;;;;;9.52;nan;102019.41;5006795;28;20038;-86
2022/04/11 10:35:01;;;;;;;8.30;2.78;;;;;;;9.61;nan;102026.16;5009710;28;20436;-87
2022/04/11 10:37:28;;;;;;;4.00;2.00;;;;;;;9.76;nan;102021.38;5005429;28;20018;-86
2022/04/11 10:40:23;;;;;;;4.97;2.85;;;;;;;9.85;nan;102017.41;5002289;28;21061;-86
2022/04/11 10:42:58;;;;;;;4.07;2.22;;;;;;;10.00;nan;102011.78;4986648;28;20522;-85
2022/04/11 10:45:40;;;;;;;3.42;2.33;;;;;;;10.11;nan;102011.13;5006620;28;20060;-85
2022/04/11 10:48:07;;;;;;;3.13;1.95;;;;;;;10.21;nan;102013.34;5024812;28;20049;-89
2022/04/11 10:50:35;;;;;;;4.10;1.80;;;;;;;10.19;nan;102013.53;5017750;28;20101;-87
2022/04/11 10:53:10;;;;;;;3.90;1.55;;;;;;;10.10;nan;102009.50;5003779;28;20101;-86
2022/04/11 10:55:53;;;;;;;2.47;1.50;;;;;;;10.07;nan;102007.25;5001613;28;20045;-85
2022/04/11 10:58:44;;;;;;;5.07;1.63;;;;;;;9.93;nan;102002.97;5006624;28;20169;-84
2022/04/11 11:01:09;;;;;;;3.65;1.63;;;;;;;10.05;nan;102000.44;4983627;28;20053;-86
2022/04/11 11:03:35;;;;;;;2.45;1.23;;;;;;;10.07;nan;102003.75;5001211;28;20045;-84
2022/04/11 11:06:19;;;;;;;2.42;1.20;;;;;;;10.02;nan;102001.69;4999265;28;20028;-84
2022/04/11 11:08:45;;;;;;;5.30;1.10;;;;;;;10.08;nan;101994.69;5000693;28;20032;-87
2022/04/11 11:11:22;;;;;;;5.30;1.20;;;;;;;10.08;nan;101992.00;5004917;28;20517;-86
2022/04/11 11:13:49;;;;;;;1.40;0.95;;;;;;;10.14;nan;101989.28;5005183;28;20391;-85
2022/04/11 11:16:14;;;;;;;3.33;1.20;;;;;;;10.13;nan;101981.47;5002880;28;20319;-86
2022/04/11 11:18:46;;;;;;;3.08;1.20;;;;;;;10.12;nan;101980.63;4999882;28;20034;-85
2022/04/11 11:21:16;;;;;;;3.88;1.52;;;;;;;10.10;nan;101988.06;5000256;28;20030;-84
2022/04/11 11:24:11;;;;;;;2.90;1.10;;;;;;;10.13;nan;101990.31;5001435;28;20064;-85
2022/04/11 11:26:46;;;;;;;5.40;1.30;;;;;;;10.11;nan;101972.81;5005985;28;20104;-85
2022/04/11 11:29:19;;;;;;;2.10;0.93;;;;;;;10.09;nan;101982.94;4978552;28;20026;-85
2022/04/11 11:31:47;;;;;;;5.38;1.50;;;;;;;10.08;nan;101989.31;5000682;28;21165;-85
2022/04/11 11:34:14;;;;;;;5.65;0.90;;;;;;;10.12;nan;101990.53;5002221;28;20049;-85
2022/04/11 11:36:43;;;;;;;1.80;0.98;;;;;;;10.17;nan;101988.84;5027682;28;20038;-84
2022/04/11 11:39:19;;;;;;;1.63;0.93;;;;;;;10.17;nan;101986.16;5003858;28;20030;-86
2022/04/11 11:41:47;;;;;;;4.22;1.10;;;;;;;10.29;nan;101991.69;4999341;28;20028;-87
2022/04/11 11:44:12;;;;;;;4.22;1.20;;;;;;;10.37;nan;101993.28;4986195;28;20038;-86
2022/04/11 11:46:50;;;;;;;7.10;1.45;;;;;;;10.45;nan;101980.47;5001709;28;20117;-85
2022/04/11 11:49:20;;;;;;;3.13;1.35;;;;;;;10.60;nan;101982.84;5003863;28;20030;-86
2022/04/11 11:51:46;;;;;;;2.30;1.60;;;;;;;10.73;nan;101981.88;5005529;28;20022;-85